createdAt,value
2023-09-09T00:00:52.825Z,20.53
2023-09-09T00:03:21.257Z,20.50
2023-09-09T00:05:51.399Z,20.45
2023-09-09T00:08:19.932Z,20.34
2023-09-09T00:10:47.167Z,20.28
2023-09-09T00:13:15.382Z,20.28
2023-09-09T00:15:42.961Z,20.31
2023-09-09T00:18:10.226Z,20.31
2023-09-09T00:20:38.714Z,20.30
2023-09-09T00:23:06.047Z,20.30
2023-09-09T00:25:34.752Z,20.28
2023-09-09T00:28:02.309Z,20.32
2023-09-09T00:30:31.264Z,20.31
2023-09-09T00:33:00.123Z,20.32
2023-09-09T00:35:27.936Z,20.30
2023-09-09T00:37:55.441Z,20.19
2023-09-09T00:40:22.584Z,20.12
2023-09-09T00:42:51.239Z,20.07
2023-09-09T00:45:19.676Z,20.01
2023-09-09T00:47:48.281Z,19.99
2023-09-09T00:50:15.836Z,19.96
2023-09-09T00:52:45.871Z,19.95
2023-09-09T00:55:13.054Z,19.96
2023-09-09T00:57:40.575Z,19.98
2023-09-09T01:00:12.209Z,20.00
2023-09-09T01:02:40.585Z,20.00
2023-09-09T01:05:09.662Z,20.02
2023-09-09T01:07:47.790Z,20.03
2023-09-09T01:10:17.357Z,20.01
2023-09-09T01:12:45.292Z,19.97
2023-09-09T01:15:14.512Z,19.78
2023-09-09T01:17:43.314Z,19.79
2023-09-09T01:20:14.047Z,19.80
2023-09-09T01:22:44.733Z,19.78
2023-09-09T01:25:13.467Z,19.65
2023-09-09T01:27:41.772Z,19.43
2023-09-09T01:30:10.515Z,19.37
2023-09-09T01:32:37.854Z,19.39
2023-09-09T01:35:08.210Z,19.42
2023-09-09T01:37:35.502Z,19.41
2023-09-09T01:40:08.896Z,19.42
2023-09-09T01:42:38.920Z,19.46
2023-09-09T01:45:09.903Z,19.52
2023-09-09T01:47:37.379Z,19.54
2023-09-09T01:50:05.966Z,19.56
2023-09-09T01:52:32.923Z,19.58
2023-09-09T01:55:00.494Z,19.60
2023-09-09T01:57:28.786Z,19.62
2023-09-09T01:59:57.045Z,19.62
2023-09-09T02:02:24.225Z,19.64
2023-09-09T02:04:51.193Z,19.65
2023-09-09T02:07:19.197Z,19.67
2023-09-09T02:09:46.443Z,19.71
2023-09-09T02:12:13.314Z,19.68
2023-09-09T02:14:43.405Z,19.66
2023-09-09T02:17:10.388Z,19.60
2023-09-09T02:19:37.736Z,19.56
2023-09-09T02:22:06.297Z,19.53
2023-09-09T02:24:33.331Z,19.45
2023-09-09T02:27:00.243Z,19.42
2023-09-09T02:29:27.365Z,19.39
2023-09-09T02:31:57.515Z,19.38
2023-09-09T02:34:25.049Z,19.35
2023-09-09T02:37:15.546Z,19.34
2023-09-09T02:39:42.505Z,19.31
2023-09-09T02:42:13.206Z,19.30
2023-09-09T02:44:40.873Z,19.28
2023-09-09T02:47:12.490Z,19.28
2023-09-09T02:49:41.406Z,19.29
2023-09-09T02:52:09.012Z,19.25
2023-09-09T02:54:37.577Z,19.27
2023-09-09T02:57:05.792Z,19.28
2023-09-09T02:59:36.270Z,19.28
2023-09-09T03:02:09.923Z,19.27
2023-09-09T03:04:36.933Z,19.26
2023-09-09T03:07:05.787Z,19.27
2023-09-09T03:09:33.629Z,19.29
2023-09-09T03:12:00.656Z,19.29
2023-09-09T03:14:31.415Z,19.29
2023-09-09T03:16:58.823Z,19.25
2023-09-09T03:19:27.393Z,19.21
2023-09-09T03:22:02.922Z,19.18
2023-09-09T03:24:31.173Z,19.18
2023-09-09T03:26:58.175Z,19.18
2023-09-09T03:29:25.443Z,19.18
2023-09-09T03:31:54.923Z,19.14
2023-09-09T03:34:22.788Z,19.13
2023-09-09T03:36:52.608Z,19.09
2023-09-09T03:39:21.860Z,19.08
2023-09-09T03:41:49.579Z,19.11
2023-09-09T03:44:16.679Z,19.14
2023-09-09T03:46:46.616Z,19.14
2023-09-09T03:49:16.112Z,19.12
2023-09-09T03:51:43.112Z,19.11
2023-09-09T03:54:12.927Z,19.11
2023-09-09T03:56:40.149Z,19.11
2023-09-09T03:59:07.709Z,19.08
2023-09-09T04:01:38.228Z,19.07
2023-09-09T04:04:06.431Z,19.00
2023-09-09T04:06:33.968Z,18.98
2023-09-09T04:09:02.781Z,18.98
2023-09-09T04:11:32.388Z,18.98
2023-09-09T04:14:02.300Z,18.98
2023-09-09T04:16:31.271Z,18.98
2023-09-09T04:19:00.780Z,18.96
2023-09-09T04:21:27.732Z,18.92
2023-09-09T04:23:56.670Z,18.88
2023-09-09T04:26:25.924Z,18.83
2023-09-09T04:28:54.833Z,18.81
2023-09-09T04:31:24.965Z,18.79
2023-09-09T04:33:54.003Z,18.75
2023-09-09T04:36:21.029Z,18.68
2023-09-09T04:38:48.014Z,18.62
2023-09-09T04:41:15.147Z,18.48
2023-09-09T04:43:42.457Z,18.44
2023-09-09T04:46:11.220Z,18.37
2023-09-09T04:48:38.878Z,18.34
2023-09-09T04:51:06.016Z,18.33
2023-09-09T04:53:33.200Z,18.32
2023-09-09T04:56:00.238Z,18.31
2023-09-09T04:58:27.723Z,18.33
2023-09-09T05:00:55.015Z,18.38
2023-09-09T05:03:24.701Z,18.32
2023-09-09T05:05:51.833Z,18.34
2023-09-09T05:08:18.940Z,18.42
2023-09-09T05:10:45.856Z,18.62
2023-09-09T05:13:13.096Z,18.86
2023-09-09T05:15:40.966Z,19.11
2023-09-09T05:18:09.536Z,19.27
2023-09-09T05:20:38.579Z,19.52
2023-09-09T05:23:06.256Z,19.82
2023-09-09T05:25:34.491Z,20.20
2023-09-09T05:28:02.287Z,20.62
2023-09-09T05:30:30.658Z,20.87
2023-09-09T05:32:59.871Z,20.98
2023-09-09T05:35:27.724Z,21.02
2023-09-09T05:37:56.742Z,21.39
2023-09-09T05:40:24.712Z,21.94
2023-09-09T05:42:53.131Z,22.61
2023-09-09T05:45:20.130Z,23.04
2023-09-09T05:47:49.332Z,23.59
2023-09-09T05:50:18.105Z,24.18
2023-09-09T05:52:45.339Z,24.80
2023-09-09T05:55:14.489Z,25.00
2023-09-09T05:57:42.822Z,25.52
2023-09-09T06:00:11.210Z,25.91
2023-09-09T06:02:44.750Z,26.52
2023-09-09T06:05:12.561Z,26.62
2023-09-09T06:07:42.332Z,26.73
2023-09-09T06:10:11.103Z,26.97
2023-09-09T06:12:39.657Z,27.18
2023-09-09T06:15:08.935Z,27.69
2023-09-09T06:17:36.302Z,27.83
2023-09-09T06:20:04.318Z,28.18
2023-09-09T06:22:31.434Z,28.39
2023-09-09T06:24:58.731Z,28.67
2023-09-09T06:27:25.777Z,28.73
2023-09-09T06:29:54.327Z,28.73
2023-09-09T06:32:22.323Z,29.10
2023-09-09T06:34:50.207Z,28.92
2023-09-09T06:37:18.432Z,29.04
2023-09-09T06:39:45.677Z,29.14
2023-09-09T06:42:12.625Z,29.42
2023-09-09T06:44:40.317Z,29.41
2023-09-09T06:47:08.715Z,29.85
2023-09-09T06:49:35.689Z,30.11
2023-09-09T06:52:02.689Z,30.33
2023-09-09T06:54:29.636Z,30.40
2023-09-09T06:56:56.582Z,30.47
2023-09-09T06:59:23.653Z,30.11
2023-09-09T07:01:50.646Z,30.04
2023-09-09T07:04:18.954Z,30.28
2023-09-09T07:07:00.133Z,30.18
2023-09-09T07:09:33.690Z,30.32
2023-09-09T07:12:03.490Z,30.84
2023-09-09T07:14:34.155Z,31.40
2023-09-09T07:17:02.302Z,32.20
2023-09-09T07:19:32.380Z,32.50
2023-09-09T07:21:59.416Z,32.48
2023-09-09T07:24:26.464Z,32.07
2023-09-09T07:26:53.605Z,32.13
2023-09-09T07:29:21.839Z,31.85
2023-09-09T07:31:51.573Z,32.60
2023-09-09T07:34:18.854Z,32.70
2023-09-09T07:36:48.112Z,32.40
2023-09-09T07:39:15.020Z,32.80
2023-09-09T07:41:41.995Z,33.22
2023-09-09T07:44:09.213Z,32.59
2023-09-09T07:46:36.757Z,32.57
2023-09-09T07:49:04.017Z,33.07
2023-09-09T07:51:31.095Z,32.63
2023-09-09T07:53:59.438Z,33.01
2023-09-09T07:56:29.076Z,33.20
2023-09-09T07:58:56.020Z,32.80
2023-09-09T08:01:23.015Z,32.68
2023-09-09T08:03:50.652Z,33.44
2023-09-09T08:06:23.311Z,33.29
2023-09-09T08:08:50.283Z,33.55
2023-09-09T08:11:18.999Z,33.91
2023-09-09T08:13:45.875Z,34.83
2023-09-09T08:16:13.188Z,33.99
2023-09-09T08:18:40.172Z,34.07
2023-09-09T08:21:07.204Z,34.32
2023-09-09T08:23:34.361Z,34.75
2023-09-09T08:26:01.648Z,35.03
2023-09-09T08:28:31.346Z,35.20
2023-09-09T08:30:59.098Z,35.21
2023-09-09T08:33:26.654Z,35.48
2023-09-09T08:35:58.486Z,35.62
2023-09-09T08:38:25.866Z,35.34
2023-09-09T08:41:04.494Z,35.45
2023-09-09T08:43:52.662Z,35.83
2023-09-09T08:46:24.438Z,36.72
2023-09-09T08:48:53.413Z,36.45
2023-09-09T08:51:33.568Z,36.71
2023-09-09T08:54:03.934Z,36.94
2023-09-09T08:56:33.260Z,36.14
2023-09-09T08:59:01.870Z,35.80
2023-09-09T09:01:29.989Z,34.68
2023-09-09T09:03:59.444Z,33.54
2023-09-09T09:06:30.625Z,33.17
2023-09-09T09:08:57.843Z,33.25
2023-09-09T09:11:25.653Z,32.97
2023-09-09T09:13:52.670Z,33.20
2023-09-09T09:16:21.046Z,32.41
2023-09-09T09:18:48.217Z,31.68
2023-09-09T09:21:15.879Z,31.34
2023-09-09T09:23:44.589Z,31.45
2023-09-09T09:26:28.464Z,31.42
2023-09-09T09:28:56.526Z,31.50
2023-09-09T09:31:28.322Z,31.52
2023-09-09T09:33:55.833Z,31.94
2023-09-09T09:36:24.662Z,32.37
2023-09-09T09:38:54.611Z,32.17
2023-09-09T09:41:23.423Z,32.44
2023-09-09T09:43:51.860Z,32.52
2023-09-09T09:46:21.645Z,32.30
2023-09-09T09:48:50.516Z,32.21
2023-09-09T09:51:17.692Z,31.77
2023-09-09T09:53:54.713Z,31.97
2023-09-09T09:56:22.321Z,32.34
2023-09-09T09:58:51.352Z,32.29
2023-09-09T10:01:18.647Z,32.79
2023-09-09T10:03:55.681Z,33.03
2023-09-09T10:06:27.369Z,33.31
2023-09-09T10:09:01.088Z,33.28
2023-09-09T10:11:36.632Z,33.66
2023-09-09T10:14:14.767Z,34.14
2023-09-09T10:16:43.863Z,34.04
2023-09-09T10:19:14.462Z,33.77
2023-09-09T10:21:44.640Z,33.81
2023-09-09T10:24:15.290Z,33.60
2023-09-09T10:26:43.593Z,33.92
2023-09-09T10:29:12.266Z,34.56
2023-09-09T10:31:42.440Z,35.33
2023-09-09T10:34:13.471Z,35.57
2023-09-09T10:36:59.432Z,36.05
2023-09-09T10:39:29.284Z,37.04
2023-09-09T10:41:58.692Z,37.76
2023-09-09T10:44:26.339Z,38.20
2023-09-09T10:46:57.750Z,38.44
2023-09-09T10:49:30.850Z,38.48
2023-09-09T10:51:57.998Z,38.72
2023-09-09T10:54:27.776Z,39.04
2023-09-09T10:56:58.664Z,38.88
2023-09-09T10:59:28.951Z,39.19
2023-09-09T11:02:11.941Z,38.99
2023-09-09T11:04:43.181Z,38.19
2023-09-09T11:07:13.030Z,37.92
2023-09-09T11:09:51.782Z,38.07
2023-09-09T11:12:26.891Z,38.43
2023-09-09T11:15:05.806Z,38.74
2023-09-09T11:17:37.038Z,38.89
2023-09-09T11:20:11.699Z,39.21
2023-09-09T11:22:40.259Z,38.96
2023-09-09T11:25:09.255Z,38.23
2023-09-09T11:27:37.101Z,38.48
2023-09-09T11:30:05.318Z,36.38
2023-09-09T11:32:33.653Z,33.63
2023-09-09T11:35:00.829Z,33.36
2023-09-09T11:37:30.358Z,33.56
2023-09-09T11:39:57.841Z,32.21
2023-09-09T11:42:25.219Z,32.34
2023-09-09T11:44:52.202Z,32.48
2023-09-09T11:47:19.801Z,32.33
2023-09-09T11:49:50.220Z,32.74
2023-09-09T11:52:21.091Z,33.10
2023-09-09T11:54:50.465Z,33.13
2023-09-09T11:57:18.509Z,32.59
2023-09-09T11:59:50.681Z,31.67
2023-09-09T12:02:22.681Z,31.34
2023-09-09T12:04:56.467Z,30.75
2023-09-09T12:07:29.540Z,30.34
2023-09-09T12:10:00.208Z,30.23
2023-09-09T12:12:28.626Z,30.02
2023-09-09T12:14:59.059Z,30.50
2023-09-09T12:17:26.846Z,30.71
2023-09-09T12:19:55.539Z,30.88
2023-09-09T12:22:33.736Z,30.94
2023-09-09T12:25:05.984Z,31.15
2023-09-09T12:27:44.265Z,31.23
2023-09-09T12:30:33.875Z,31.34
2023-09-09T12:33:09.561Z,31.42
2023-09-09T12:35:42.815Z,31.14
2023-09-09T12:38:11.191Z,31.35
2023-09-09T12:40:52.588Z,31.46
2023-09-09T12:43:24.634Z,31.24
2023-09-09T12:45:55.965Z,30.51
2023-09-09T12:48:24.256Z,30.52
2023-09-09T12:50:51.506Z,30.64
2023-09-09T12:53:19.240Z,30.54
2023-09-09T12:55:47.225Z,30.72
2023-09-09T12:58:15.665Z,30.77
2023-09-09T13:00:43.809Z,30.56
2023-09-09T13:03:10.884Z,30.75
2023-09-09T13:05:38.030Z,30.82
2023-09-09T13:08:05.697Z,30.96
2023-09-09T13:10:34.513Z,31.05
2023-09-09T13:13:03.408Z,31.16
2023-09-09T13:15:33.090Z,31.03
2023-09-09T13:18:00.122Z,31.11
2023-09-09T13:20:27.617Z,31.14
2023-09-09T13:22:54.934Z,31.26
2023-09-09T13:25:24.112Z,31.17
2023-09-09T13:27:52.290Z,31.16
2023-09-09T13:30:20.189Z,31.12
2023-09-09T13:32:48.558Z,30.98
2023-09-09T13:35:15.997Z,30.90
2023-09-09T13:37:43.349Z,30.86
2023-09-09T13:40:11.285Z,30.93
2023-09-09T13:42:39.201Z,30.96
2023-09-09T13:45:10.994Z,30.86
2023-09-09T13:47:39.493Z,30.68
2023-09-09T13:50:09.914Z,30.73
2023-09-09T13:52:37.130Z,30.91
2023-09-09T13:55:05.887Z,30.99
2023-09-09T13:57:32.930Z,31.09
2023-09-09T14:00:00.037Z,31.06
2023-09-09T14:02:27.559Z,31.01
2023-09-09T14:04:55.417Z,31.01
2023-09-09T14:07:24.237Z,30.85
2023-09-09T14:09:51.187Z,30.75
2023-09-09T14:12:18.116Z,30.91
2023-09-09T14:14:45.312Z,30.96
2023-09-09T14:17:12.464Z,31.01
2023-09-09T14:19:40.553Z,31.04
2023-09-09T14:22:07.904Z,31.12
2023-09-09T14:24:36.830Z,31.23
2023-09-09T14:27:04.962Z,31.35
2023-09-09T14:29:34.229Z,31.35
2023-09-09T14:32:01.245Z,31.31
2023-09-09T14:34:28.572Z,31.17
2023-09-09T14:36:55.467Z,31.17
2023-09-09T14:39:22.432Z,31.21
2023-09-09T14:41:51.983Z,31.26
2023-09-09T14:44:19.063Z,31.32
2023-09-09T14:46:46.025Z,31.30
2023-09-09T14:49:13.349Z,31.11
2023-09-09T14:51:41.853Z,31.03
2023-09-09T14:54:10.587Z,31.03
2023-09-09T14:56:37.562Z,30.99
2023-09-09T14:59:05.883Z,30.96
2023-09-09T15:01:33.228Z,30.93
2023-09-09T15:04:00.678Z,30.93
2023-09-09T15:06:27.602Z,30.75
2023-09-09T15:08:54.482Z,30.65
2023-09-09T15:11:22.429Z,30.74
2023-09-09T15:13:50.171Z,30.81
2023-09-09T15:16:21.483Z,30.69
2023-09-09T15:18:49.896Z,30.73
2023-09-09T15:21:17.078Z,30.63
2023-09-09T15:23:44.651Z,30.59
2023-09-09T15:26:11.657Z,30.66
2023-09-09T15:28:39.157Z,30.68
2023-09-09T15:31:06.343Z,30.58
2023-09-09T15:33:37.123Z,30.61
2023-09-09T15:36:04.821Z,30.61
2023-09-09T15:38:31.824Z,30.59
2023-09-09T15:40:58.829Z,30.57
2023-09-09T15:43:25.904Z,30.44
2023-09-09T15:46:02.803Z,30.32
2023-09-09T15:48:31.563Z,30.37
2023-09-09T15:51:03.570Z,30.42
2023-09-09T15:53:31.098Z,30.54
2023-09-09T15:55:59.155Z,30.63
2023-09-09T15:58:27.042Z,30.65
2023-09-09T16:00:55.117Z,30.63
2023-09-09T16:03:22.167Z,30.55
2023-09-09T16:05:49.276Z,30.51
2023-09-09T16:08:17.535Z,30.45
2023-09-09T16:10:44.427Z,30.39
2023-09-09T16:13:12.516Z,30.44
2023-09-09T16:15:39.745Z,30.38
2023-09-09T16:18:10.032Z,30.38
2023-09-09T16:20:37.548Z,30.40
2023-09-09T16:23:06.464Z,30.33
2023-09-09T16:25:36.683Z,30.26
2023-09-09T16:28:04.482Z,30.12
2023-09-09T16:30:31.437Z,30.11
2023-09-09T16:32:58.382Z,30.04
2023-09-09T16:35:26.967Z,30.02
2023-09-09T16:37:53.968Z,29.92
2023-09-09T16:40:21.421Z,29.90
2023-09-09T16:42:49.843Z,29.89
2023-09-09T16:45:17.068Z,29.84
2023-09-09T16:47:44.708Z,29.77
2023-09-09T16:50:11.701Z,29.69
2023-09-09T16:52:39.930Z,29.67
2023-09-09T16:55:08.935Z,29.64
2023-09-09T16:57:38.687Z,29.62
2023-09-09T17:00:09.917Z,29.53
2023-09-09T17:02:38.184Z,29.47
2023-09-09T17:05:06.512Z,29.43
2023-09-09T17:07:34.685Z,29.36
2023-09-09T17:10:02.261Z,29.32
2023-09-09T17:12:29.588Z,29.25
2023-09-09T17:14:59.527Z,29.20
2023-09-09T17:17:28.180Z,29.15
2023-09-09T17:19:55.678Z,29.09
2023-09-09T17:22:22.720Z,28.95
2023-09-09T17:24:49.963Z,28.88
2023-09-09T17:27:17.122Z,28.84
2023-09-09T17:29:44.803Z,28.78
2023-09-09T17:32:11.736Z,28.70
2023-09-09T17:34:42.723Z,28.54
2023-09-09T17:37:10.198Z,28.47
2023-09-09T17:39:38.249Z,28.41
2023-09-09T17:42:05.828Z,28.27
2023-09-09T17:44:33.835Z,28.19
2023-09-09T17:47:00.856Z,28.12
2023-09-09T17:49:27.914Z,28.11
2023-09-09T17:51:56.443Z,28.05
2023-09-09T17:54:23.980Z,28.02
2023-09-09T17:56:52.857Z,27.97
2023-09-09T17:59:21.626Z,27.91
2023-09-09T18:01:50.140Z,27.67
2023-09-09T18:04:18.835Z,27.49
2023-09-09T18:06:46.455Z,27.33
2023-09-09T18:09:15.130Z,27.17
2023-09-09T18:11:42.746Z,26.99
2023-09-09T18:14:09.952Z,26.77
2023-09-09T18:16:37.265Z,26.62
2023-09-09T18:19:05.087Z,26.42
2023-09-09T18:21:33.032Z,26.44
2023-09-09T18:24:00.061Z,26.42
2023-09-09T18:26:29.756Z,26.27
2023-09-09T18:28:56.891Z,26.03
2023-09-09T18:31:25.651Z,25.96
2023-09-09T18:33:53.640Z,25.89
2023-09-09T18:36:20.647Z,25.67
2023-09-09T18:38:47.666Z,25.63
2023-09-09T18:41:14.651Z,25.49
2023-09-09T18:43:43.752Z,25.44
2023-09-09T18:46:11.918Z,25.36
2023-09-09T18:48:39.256Z,25.20
2023-09-09T18:51:06.443Z,25.05
2023-09-09T18:53:33.669Z,24.89
2023-09-09T18:56:00.658Z,24.85
2023-09-09T18:58:27.689Z,24.80
2023-09-09T19:00:56.049Z,24.77
2023-09-09T19:03:23.504Z,24.73
2023-09-09T19:05:51.036Z,24.69
2023-09-09T19:08:20.616Z,24.60
2023-09-09T19:10:47.554Z,24.58
2023-09-09T19:13:15.063Z,24.42
2023-09-09T19:15:42.099Z,24.19
2023-09-09T19:18:10.730Z,24.17
2023-09-09T19:20:37.998Z,24.07
2023-09-09T19:23:05.289Z,24.01
2023-09-09T19:25:35.501Z,23.97
2023-09-09T19:28:03.138Z,23.79
2023-09-09T19:30:32.214Z,23.74
2023-09-09T19:32:59.301Z,23.65
2023-09-09T19:35:28.144Z,23.56
2023-09-09T19:37:55.496Z,23.50
2023-09-09T19:40:22.840Z,23.47
2023-09-09T19:42:50.609Z,23.47
2023-09-09T19:45:19.151Z,23.42
2023-09-09T19:47:46.199Z,23.41
2023-09-09T19:50:13.275Z,23.49
2023-09-09T19:52:41.646Z,23.54
2023-09-09T19:55:10.376Z,23.61
2023-09-09T19:57:37.261Z,23.39
2023-09-09T20:00:06.686Z,23.48
2023-09-09T20:02:33.684Z,23.49
2023-09-09T20:05:01.190Z,23.50
2023-09-09T20:07:29.319Z,23.50
2023-09-09T20:10:07.826Z,23.54
2023-09-09T20:12:35.091Z,23.57
2023-09-09T20:15:02.453Z,23.61
2023-09-09T20:17:29.536Z,23.66
2023-09-09T20:19:56.995Z,23.68
2023-09-09T20:22:26.822Z,23.70
2023-09-09T20:24:56.763Z,23.72
2023-09-09T20:27:23.713Z,23.72
2023-09-09T20:29:51.423Z,23.68
2023-09-09T20:32:18.914Z,23.65
2023-09-09T20:34:50.821Z,23.54
2023-09-09T20:37:17.877Z,23.49
2023-09-09T20:39:44.874Z,23.49
2023-09-09T20:42:13.281Z,23.47
2023-09-09T20:44:40.458Z,23.10
2023-09-09T20:47:07.434Z,23.14
2023-09-09T20:49:34.581Z,23.14
2023-09-09T20:52:01.486Z,23.14
2023-09-09T20:54:28.480Z,23.11
2023-09-09T20:56:55.437Z,23.07
2023-09-09T20:59:23.988Z,22.94
2023-09-09T21:01:51.281Z,22.87
2023-09-09T21:04:18.451Z,22.86
2023-09-09T21:06:46.787Z,22.88
2023-09-09T21:09:13.767Z,22.86
2023-09-09T21:11:40.754Z,22.75
2023-09-09T21:14:07.842Z,22.70
2023-09-09T21:16:36.210Z,22.68
2023-09-09T21:19:05.539Z,22.69
2023-09-09T21:21:32.478Z,22.11
2023-09-09T21:23:59.503Z,21.86
2023-09-09T21:26:26.424Z,21.89
2023-09-09T21:28:53.957Z,21.94
2023-09-09T21:31:21.068Z,21.83
2023-09-09T21:33:50.367Z,21.77
2023-09-09T21:36:17.314Z,21.74
2023-09-09T21:38:44.880Z,21.64
2023-09-09T21:41:12.202Z,21.59
2023-09-09T21:43:39.390Z,21.60
2023-09-09T21:46:07.042Z,21.60
2023-09-09T21:48:34.394Z,21.59
2023-09-09T21:51:03.273Z,21.54
2023-09-09T21:53:30.161Z,21.55
2023-09-09T21:55:57.859Z,21.58
2023-09-09T21:58:24.973Z,21.64
2023-09-09T22:00:52.233Z,21.71
2023-09-09T22:03:19.597Z,21.82
2023-09-09T22:05:46.599Z,21.90
2023-09-09T22:08:15.189Z,21.99
2023-09-09T22:10:42.254Z,22.07
2023-09-09T22:13:09.523Z,22.14
2023-09-09T22:15:36.489Z,22.19
2023-09-09T22:18:04.153Z,22.23
2023-09-09T22:20:31.238Z,22.24
2023-09-09T22:22:58.520Z,22.04
2023-09-09T22:25:29.577Z,21.93
2023-09-09T22:28:05.037Z,21.79
2023-09-09T22:30:34.878Z,21.73
2023-09-09T22:33:05.818Z,21.73
2023-09-09T22:35:33.712Z,21.64
2023-09-09T22:38:01.019Z,21.51
2023-09-09T22:40:31.518Z,21.52
2023-09-09T22:43:01.787Z,21.58
2023-09-09T22:45:30.333Z,21.58
2023-09-09T22:47:57.816Z,21.61
2023-09-09T22:50:24.691Z,21.65
2023-09-09T22:52:51.934Z,21.63
2023-09-09T22:55:19.126Z,21.54
2023-09-09T22:57:47.466Z,21.34
2023-09-09T23:00:15.866Z,21.17
2023-09-09T23:02:43.260Z,21.00
2023-09-09T23:05:10.630Z,20.98
2023-09-09T23:07:50.135Z,20.98
2023-09-09T23:10:18.989Z,20.98
2023-09-09T23:12:47.718Z,20.95
2023-09-09T23:15:15.025Z,20.94
2023-09-09T23:17:41.988Z,21.01
2023-09-09T23:20:11.299Z,21.03
2023-09-09T23:22:38.697Z,20.96
2023-09-09T23:25:06.844Z,21.03
2023-09-09T23:27:33.754Z,21.13
2023-09-09T23:30:02.229Z,21.21
2023-09-09T23:32:29.699Z,21.25
2023-09-09T23:34:56.762Z,21.29
2023-09-09T23:37:23.928Z,21.28
2023-09-09T23:39:51.081Z,21.29
2023-09-09T23:42:18.120Z,21.30
2023-09-09T23:44:45.072Z,21.26
2023-09-09T23:47:13.330Z,21.15
2023-09-09T23:49:40.648Z,21.10
2023-09-09T23:52:07.492Z,21.03
2023-09-09T23:54:35.082Z,21.00
2023-09-09T23:57:02.094Z,21.03
2023-09-09T23:59:29.061Z,21.08
